Time;durP1;ratioP1;P1;durP2;ratioP2;P2;SDS_P1;SDS_P2;PMS_P1;PMS_P2;Temp;Humidity;BMP_temperature;BMP_pressure;BME280_temperature;BME280_humidity;BME280_pressure;Samples;Min_cycle;Max_cycle;Signal;HPM_P1;HPM_P2
2022/11/02 00:01:55;;;;;;;;;1.00;0.75;;;;;15.91;56.67;101483.53;4942383;28;45278;-63
2022/11/02 00:04:20;;;;;;;;;0.50;0.50;;;;;15.89;56.65;101482.69;4942454;28;45310;-63
2022/11/02 00:06:46;;;;;;;;;1.50;1.50;;;;;15.90;56.88;101484.44;4941778;28;46043;-64
2022/11/02 00:09:11;;;;;;;;;4.50;2.00;;;;;15.90;56.40;101476.50;4940556;28;45299;-64
2022/11/02 00:11:36;;;;;;;;;5.00;1.50;;;;;15.87;56.83;101489.84;4941940;28;45235;-64
2022/11/02 00:14:02;;;;;;;;;1.75;1.75;;;;;15.83;56.95;101484.63;4942237;28;45291;-64
2022/11/02 00:16:28;;;;;;;;;2.00;2.00;;;;;15.82;56.95;101485.53;4940518;28;46093;-64
2022/11/02 00:18:57;;;;;;;;;1.75;1.25;;;;;15.79;56.85;101489.09;4941988;28;45268;-63
2022/11/02 00:21:24;;;;;;;;;2.00;1.25;;;;;15.76;56.77;101486.53;4941779;28;45242;-63
2022/11/02 00:23:51;;;;;;;;;2.75;0.50;;;;;15.77;56.61;101489.16;4942003;28;45339;-63
2022/11/02 00:26:17;;;;;;;;;5.25;1.50;;;;;15.74;56.95;101486.56;4940201;28;47538;-64
2022/11/02 00:28:42;;;;;;;;;3.25;0.75;;;;;15.73;57.10;101478.66;4941849;28;45327;-63
2022/11/02 00:31:08;;;;;;;;;1.25;0.25;;;;;15.73;56.52;101490.09;4941812;28;45331;-63
2022/11/02 00:33:33;;;;;;;;;0.25;0.25;;;;;15.68;56.65;101492.00;4941937;28;45362;-63
2022/11/02 00:35:58;;;;;;;;;1.00;0.00;;;;;15.65;56.63;101497.38;4941495;28;46181;-63
2022/11/02 00:38:24;;;;;;;;;2.00;1.25;;;;;15.62;56.87;101512.47;4941946;28;45381;-63
2022/11/02 00:40:49;;;;;;;;;2.00;0.75;;;;;15.54;56.89;101510.00;4941946;28;45220;-64
2022/11/02 00:43:14;;;;;;;;;2.50;0.75;;;;;15.57;56.51;101504.63;4941669;28;47164;-64
2022/11/02 00:45:40;;;;;;;;;0.75;0.50;;;;;15.52;56.67;101517.09;4941799;28;45287;-64
2022/11/02 00:48:05;;;;;;;;;1.50;1.25;;;;;15.50;56.70;101522.44;4941552;28;45436;-64
2022/11/02 00:50:31;;;;;;;;;1.50;0.50;;;;;15.43;56.46;101502.28;4941662;28;45642;-63
2022/11/02 00:52:56;;;;;;;;;3.50;1.75;;;;;15.44;56.70;101514.63;4941463;28;45216;-64
2022/11/02 00:55:22;;;;;;;;;4.25;2.50;;;;;15.43;56.36;101513.78;4941381;28;45356;-64
2022/11/02 00:57:47;;;;;;;;;2.00;1.00;;;;;15.40;56.59;101512.97;4941490;28;45251;-63
2022/11/02 01:00:14;;;;;;;;;1.25;1.25;;;;;15.38;56.61;101514.75;4940251;28;45250;-63
2022/11/02 01:02:40;;;;;;;;;3.50;1.50;;;;;15.33;56.75;101519.28;4941474;28;45421;-63
2022/11/02 01:05:07;;;;;;;;;2.50;1.00;;;;;15.31;56.33;101535.22;4941202;28;46205;-63
2022/11/02 01:07:32;;;;;;;;;0.75;0.75;;;;;15.25;56.67;101528.25;4941268;28;45298;-63
2022/11/02 01:09:57;;;;;;;;;1.25;1.25;;;;;15.23;56.53;101532.75;4941502;28;45337;-64
2022/11/02 01:12:23;;;;;;;;;2.00;2.00;;;;;15.16;57.19;101547.00;4941270;28;45481;-64
2022/11/02 01:14:49;;;;;;;;;0.25;0.00;;;;;15.13;56.89;101530.31;4941363;28;45475;-63
2022/11/02 01:17:15;;;;;;;;;2.25;1.00;;;;;15.11;57.10;101533.84;4939993;28;45437;-64
2022/11/02 01:19:41;;;;;;;;;3.50;1.00;;;;;15.14;57.00;101538.22;4941357;28;45315;-64
2022/11/02 01:22:06;;;;;;;;;1.50;1.50;;;;;15.08;57.27;101539.22;4941188;28;45490;-64
2022/11/02 01:24:32;;;;;;;;;3.50;2.50;;;;;15.06;56.92;101545.44;4941045;28;45440;-63
2022/11/02 01:26:57;;;;;;;;;2.50;1.00;;;;;15.06;56.95;101550.75;4941131;28;45375;-63
2022/11/02 01:29:22;;;;;;;;;1.50;1.50;;;;;15.01;57.24;101548.19;4941225;28;45183;-63
2022/11/02 01:31:48;;;;;;;;;3.00;1.50;;;;;14.97;56.99;101541.22;4939812;28;45257;-64
2022/11/02 01:34:14;;;;;;;;;6.25;1.25;;;;;14.98;57.46;101552.66;4941048;28;46092;-63
2022/11/02 01:36:39;;;;;;;;;3.50;1.00;;;;;14.91;57.24;101547.47;4940869;28;45270;-63
2022/11/02 01:39:05;;;;;;;;;4.75;2.00;;;;;14.91;57.50;101554.56;4943669;28;45515;-63
2022/11/02 01:41:31;;;;;;;;;3.00;1.50;;;;;14.91;57.07;101547.47;4944424;28;45274;-63
2022/11/02 01:43:57;;;;;;;;;4.00;1.50;;;;;14.89;57.26;101548.41;4944179;28;45812;-63
2022/11/02 01:46:42;;;;;;;;;1.25;1.25;;;;;14.87;57.31;101550.25;4944532;28;45342;-63
2022/11/02 01:49:13;;;;;;;;;6.25;3.25;;;;;14.83;57.44;101552.06;4944198;28;45512;-63
2022/11/02 01:52:08;;;;;;;;;4.50;1.00;;;;;14.79;57.86;101551.25;4942772;28;45542;-63
2022/11/02 01:54:38;;;;;;;;;5.75;1.25;;;;;14.79;57.56;101568.88;4944121;28;46329;-63
2022/11/02 01:57:11;;;;;;;;;4.00;2.75;;;;;14.77;57.74;101563.63;4943966;28;45332;-63
2022/11/02 01:59:55;;;;;;;;;4.00;3.00;;;;;14.74;57.65;101584.88;4944225;28;45392;-64
2022/11/02 02:02:23;;;;;;;;;2.00;2.00;;;;;14.71;57.96;101576.97;4944217;28;45417;-63
2022/11/02 02:04:53;;;;;;;;;1.50;0.00;;;;;14.70;57.67;101579.63;4944173;28;45368;-63
2022/11/02 02:07:23;;;;;;;;;4.25;1.75;;;;;14.68;57.88;101584.97;4943680;28;45240;-63
2022/11/02 02:09:49;;;;;;;;;5.25;2.00;;;;;14.69;57.64;101577.88;4943938;28;45258;-63
2022/11/02 02:12:14;;;;;;;;;4.00;2.75;;;;;14.67;57.63;101585.00;4943768;28;45472;-63
2022/11/02 02:14:40;;;;;;;;;6.25;4.00;;;;;14.67;58.00;101591.16;4943783;28;46284;-64
2022/11/02 02:17:20;;;;;;;;;4.75;2.50;;;;;14.65;57.70;101581.50;4943762;28;45343;-63
2022/11/02 02:19:45;;;;;;;;;6.75;3.75;;;;;14.61;57.73;101589.44;4943772;28;45330;-63
2022/11/02 02:22:45;;;;;;;;;2.75;1.75;;;;;14.59;57.71;101585.97;4943634;28;45318;-63
2022/11/02 02:25:29;;;;;;;;;3.25;2.00;;;;;14.58;58.05;101591.28;4943857;28;45388;-63
2022/11/02 02:28:11;;;;;;;;;4.75;3.25;;;;;14.51;57.70;101590.50;4943720;28;45238;-63
2022/11/02 02:30:45;;;;;;;;;4.75;3.00;;;;;14.46;58.16;101593.25;4943667;28;45337;-63
2022/11/02 02:33:27;;;;;;;;;6.00;2.50;;;;;14.46;57.62;101592.34;4943450;28;45256;-63
2022/11/02 02:36:12;;;;;;;;;5.00;2.50;;;;;14.45;57.69;101599.44;4943297;28;46191;-63
2022/11/02 02:38:43;;;;;;;;;5.25;3.00;;;;;14.44;58.07;101602.09;4943571;28;45559;-63
2022/11/02 02:41:17;;;;;;;;;2.00;1.00;;;;;14.33;57.87;101585.56;4943618;28;45425;-63
2022/11/02 02:43:50;;;;;;;;;4.25;2.00;;;;;14.38;57.59;101605.72;4943382;28;45343;-64
2022/11/02 02:46:44;;;;;;;;;3.25;0.75;;;;;14.36;57.74;101610.13;4943548;28;46598;-64
2022/11/02 02:49:14;;;;;;;;;5.50;4.25;;;;;14.34;57.72;101597.84;4942098;28;45377;-63
2022/11/02 02:51:43;;;;;;;;;3.75;3.75;;;;;14.32;57.74;101599.66;4943240;28;45298;-63
2022/11/02 02:54:15;;;;;;;;;4.25;3.25;;;;;14.33;58.03;101598.78;4943393;28;45293;-63
2022/11/02 02:56:49;;;;;;;;;4.75;3.50;;;;;14.33;57.38;101604.06;4942872;28;46249;-63
2022/11/02 02:59:22;;;;;;;;;4.25;3.50;;;;;14.31;57.75;101606.69;4943362;28;45311;-64
2022/11/02 03:01:48;;;;;;;;;4.25;3.00;;;;;14.27;57.93;101600.59;4943364;28;45526;-63
2022/11/02 03:04:14;;;;;;;;;12.00;3.50;;;;;14.22;57.48;101591.84;4943199;28;45263;-63
2022/11/02 03:06:48;;;;;;;;;5.50;4.25;;;;;14.25;57.74;101609.44;4942801;28;46578;-64
2022/11/02 03:09:26;;;;;;;;;4.00;4.00;;;;;14.24;57.70;101611.22;4943271;28;45343;-64
2022/11/02 03:12:25;;;;;;;;;3.75;3.50;;;;;14.22;57.91;101610.34;4943000;28;45290;-64
2022/11/02 03:15:25;;;;;;;;;6.75;3.75;;;;;14.23;57.50;101616.53;4942780;28;45380;-63
2022/11/02 03:18:25;;;;;;;;;0.00;0.00;;;;;14.21;57.83;101624.47;4939073;28;45417;-63
2022/11/02 03:20:54;;;;;;;;;6.00;2.00;;;;;14.20;57.58;101622.75;4942523;28;45290;-63
2022/11/02 03:23:22;;;;;;;;;3.75;3.00;;;;;14.18;57.62;101610.44;4943112;28;45226;-63
2022/11/02 03:26:15;;;;;;;;;5.75;3.75;;;;;14.13;57.73;101621.94;4941337;28;45616;-63
2022/11/02 03:28:46;;;;;;;;;2.75;2.75;;;;;14.13;57.65;101626.38;4942736;28;45225;-63
2022/11/02 03:31:18;;;;;;;;;3.00;2.00;;;;;14.12;58.25;101624.63;4942556;28;45373;-63
2022/11/02 03:34:03;;;;;;;;;2.75;2.00;;;;;14.12;57.52;101628.16;4942946;28;45453;-63
2022/11/02 03:36:38;;;;;;;;;3.00;2.50;;;;;14.09;58.02;101622.03;4942359;28;45204;-63
2022/11/02 03:39:07;;;;;;;;;5.00;3.50;;;;;14.09;58.18;101624.69;4942500;28;45232;-63
2022/11/02 03:41:36;;;;;;;;;2.25;1.50;;;;;14.07;58.31;101626.47;4941230;28;45383;-63
2022/11/02 03:44:07;;;;;;;;;1.50;1.00;;;;;14.07;58.04;101629.09;4942540;28;45351;-62
2022/11/02 03:46:38;;;;;;;;;4.00;1.50;;;;;14.03;58.36;101645.91;4942313;28;45441;-63
2022/11/02 03:49:07;;;;;;;;;4.00;2.50;;;;;14.01;58.52;101637.13;4942305;28;45455;-63
2022/11/02 03:51:36;;;;;;;;;4.75;1.00;;;;;13.96;58.23;101639.81;4942198;28;45417;-63
2022/11/02 03:54:11;;;;;;;;;6.00;2.25;;;;;13.97;57.94;101646.84;4942370;28;45272;-64
2022/11/02 03:56:49;;;;;;;;;2.00;1.00;;;;;13.96;58.20;101656.56;4942180;28;45345;-64
2022/11/02 03:59:15;;;;;;;;;11.00;2.75;;;;;13.95;58.23;101659.22;4942229;28;46369;-63
2022/11/02 04:01:43;;;;;;;;;6.50;3.50;;;;;13.93;58.19;101661.88;4941823;28;45366;-63
2022/11/02 04:04:09;;;;;;;;;1.75;1.75;;;;;13.94;58.49;101655.69;4942499;28;45373;-63
2022/11/02 04:06:36;;;;;;;;;6.00;1.75;;;;;13.84;58.44;101667.28;4941812;28;45412;-63
2022/11/02 04:09:01;;;;;;;;;3.50;2.50;;;;;13.83;58.76;101670.81;4942184;28;46226;-64
2022/11/02 04:19:50;;;;;;;;;5.25;4.25;;;;;13.83;58.62;101691.97;4932961;28;45466;-64
2022/11/02 04:25:14;;;;;;;;;3.75;3.00;;;;;13.80;58.70;101697.28;4942344;28;45314;-64
2022/11/02 04:27:40;;;;;;;;;7.50;3.00;;;;;13.79;58.57;101706.97;4941813;28;45435;-64
2022/11/02 04:30:06;;;;;;;;;6.25;5.75;;;;;13.76;58.74;101700.84;4941789;28;46344;-64
2022/11/02 04:35:21;;;;;;;;;10.00;4.50;;;;;13.75;58.81;101709.69;4942084;28;45466;-64
2022/11/02 04:40:30;;;;;;;;;6.00;2.00;;;;;13.67;58.69;101720.31;4941643;28;45772;-64
2022/11/02 04:42:56;;;;;;;;;3.75;3.25;;;;;13.68;58.46;101722.06;4941776;28;45207;-65
2022/11/02 04:45:21;;;;;;;;;6.25;4.75;;;;;13.63;58.90;101735.34;4941982;28;45424;-64
2022/11/02 04:47:46;;;;;;;;;5.00;3.00;;;;;13.63;59.10;101737.09;4941486;28;45379;-64
2022/11/02 04:50:11;;;;;;;;;7.50;3.50;;;;;13.62;58.99;101740.63;4941667;28;46132;-64
2022/11/02 04:52:37;;;;;;;;;5.25;4.50;;;;;13.62;58.42;101746.81;4941347;28;46712;-64
2022/11/02 04:55:03;;;;;;;;;6.25;4.25;;;;;13.63;59.12;101752.94;4941781;28;45275;-65
2022/11/02 04:57:28;;;;;;;;;5.75;2.50;;;;;13.60;58.79;101742.44;4941469;28;45429;-65
2022/11/02 04:59:54;;;;;;;;;7.00;4.75;;;;;13.61;58.87;101749.44;4941564;28;46207;-65
2022/11/02 05:02:19;;;;;;;;;9.50;3.00;;;;;13.60;58.41;101753.84;4941571;28;45227;-65
2022/11/02 05:04:44;;;;;;;;;7.50;2.50;;;;;13.56;58.64;101748.59;4941598;28;45450;-64
2022/11/02 05:07:10;;;;;;;;;4.75;4.50;;;;;13.58;58.56;101762.69;4941118;28;51009;-64
2022/11/02 05:09:36;;;;;;;;;6.50;3.00;;;;;13.59;58.60;101761.81;4941328;28;46179;-64
2022/11/02 05:12:03;;;;;;;;;8.50;1.25;;;;;13.57;58.85;101764.47;4941082;28;45311;-64
2022/11/02 05:14:29;;;;;;;;;6.00;3.00;;;;;13.60;58.51;101764.41;4944754;28;45319;-64
2022/11/02 05:16:54;;;;;;;;;6.50;4.25;;;;;13.59;58.99;101767.94;4944571;28;45573;-63
2022/11/02 05:19:20;;;;;;;;;6.25;3.00;;;;;13.59;58.66;101781.16;4944756;28;45361;-63
2022/11/02 05:21:45;;;;;;;;;3.00;3.00;;;;;13.55;58.42;101770.66;4944522;28;45863;-63
2022/11/02 05:24:10;;;;;;;;;8.50;4.75;;;;;13.54;58.42;101769.75;4944628;28;47596;-63
2022/11/02 05:26:36;;;;;;;;;2.75;1.50;;;;;13.54;58.65;101774.19;4944502;28;45530;-64
2022/11/02 05:29:01;;;;;;;;;4.00;3.00;;;;;13.57;58.47;101782.06;4943197;28;45831;-64
2022/11/02 05:31:26;;;;;;;;;9.75;7.00;;;;;13.59;58.69;101786.44;4944579;28;45211;-63
2022/11/02 05:33:52;;;;;;;;;9.25;3.75;;;;;13.60;58.69;101790.81;4944846;28;45243;-64
2022/11/02 05:36:17;;;;;;;;;4.25;4.00;;;;;13.58;58.74;101795.25;4944516;28;45160;-64
2022/11/02 05:38:42;;;;;;;;;4.75;3.00;;;;;13.59;58.65;101796.13;4944219;28;45273;-64
2022/11/02 05:41:08;;;;;;;;;5.50;3.25;;;;;13.59;58.71;101797.00;4944608;28;45159;-64
2022/11/02 05:43:33;;;;;;;;;12.25;7.75;;;;;13.59;58.46;101799.63;4944426;28;45416;-65
2022/11/02 05:46:01;;;;;;;;;18.25;13.00;;;;;13.59;58.51;101799.63;4944365;28;45377;-64
2022/11/02 05:48:30;;;;;;;;;24.50;16.50;;;;;13.56;58.58;101797.03;4943956;28;46713;-65
2022/11/02 05:51:01;;;;;;;;;38.75;30.25;;;;;13.57;58.58;101803.19;4943945;28;45228;-64
2022/11/02 05:53:30;;;;;;;;;44.00;31.25;;;;;13.56;58.59;101807.59;4944249;28;45310;-64
2022/11/02 05:56:00;;;;;;;;;43.25;30.00;;;;;13.53;58.35;101804.97;4944045;28;45491;-65
2022/11/02 05:58:26;;;;;;;;;30.75;23.50;;;;;13.51;58.37;101806.78;4943969;28;45373;-65
2022/11/02 06:00:52;;;;;;;;;10.00;9.75;;;;;13.51;58.89;101817.34;4944073;28;45410;-64
2022/11/02 06:03:18;;;;;;;;;15.25;11.25;;;;;13.46;58.66;101801.53;4944189;28;45392;-64
2022/11/02 06:05:43;;;;;;;;;16.50;11.25;;;;;13.45;58.62;101806.84;4943903;28;45636;-64
2022/11/02 06:08:08;;;;;;;;;6.00;6.00;;;;;13.40;58.81;101803.34;4944034;28;45435;-64
2022/11/02 06:10:34;;;;;;;;;8.00;5.00;;;;;13.40;58.97;101809.50;4943755;28;48721;-64
2022/11/02 06:13:02;;;;;;;;;10.00;5.25;;;;;13.39;58.50;101805.09;4944054;28;45559;-64
2022/11/02 06:15:29;;;;;;;;;6.75;4.25;;;;;13.37;58.92;101811.25;4944048;28;45320;-66
2022/11/02 06:17:54;;;;;;;;;5.00;4.25;;;;;13.35;59.00;101813.06;4943667;28;45324;-65
2022/11/02 06:20:20;;;;;;;;;6.25;3.50;;;;;13.29;59.01;101804.28;4943739;28;45402;-65
2022/11/02 06:22:45;;;;;;;;;5.00;4.00;;;;;13.29;58.95;101812.19;4943737;28;45603;-65
2022/11/02 06:25:11;;;;;;;;;8.00;4.00;;;;;13.29;58.83;101804.28;4943700;28;45590;-64
2022/11/02 06:27:37;;;;;;;;;8.75;5.00;;;;;13.29;58.95;101806.91;4943364;28;45342;-65
2022/11/02 06:30:03;;;;;;;;;6.75;4.75;;;;;13.28;59.26;101813.09;4943595;28;45298;-65
2022/11/02 06:32:28;;;;;;;;;7.50;6.25;;;;;13.27;59.21;101813.09;4943774;28;45389;-65
2022/11/02 06:34:53;;;;;;;;;9.00;5.25;;;;;13.25;58.81;101815.75;4943566;28;45457;-65
2022/11/02 06:37:19;;;;;;;;;4.50;4.00;;;;;13.22;59.40;101814.91;4943182;28;46022;-64
2022/11/02 06:39:44;;;;;;;;;8.50;4.75;;;;;13.19;59.38;101818.44;4943561;28;45317;-63
2022/11/02 06:42:09;;;;;;;;;3.75;2.00;;;;;13.19;59.14;101825.50;4943390;28;46067;-63
2022/11/02 06:44:35;;;;;;;;;4.50;3.00;;;;;13.14;59.36;101829.06;4943653;28;47940;-64
2022/11/02 06:47:00;;;;;;;;;6.00;4.75;;;;;13.14;59.12;101828.16;4942042;28;47263;-64
2022/11/02 06:49:25;;;;;;;;;5.25;3.75;;;;;13.11;59.30;101834.34;4943342;28;45386;-65
2022/11/02 06:51:51;;;;;;;;;7.25;5.50;;;;;13.12;59.10;101846.66;4943203;28;45668;-65
2022/11/02 06:54:17;;;;;;;;;5.75;4.00;;;;;13.11;59.33;101850.16;4943402;28;45436;-64
2022/11/02 06:56:42;;;;;;;;;7.00;4.00;;;;;13.12;59.34;101851.06;4942909;28;45219;-65
2022/11/02 06:59:07;;;;;;;;;16.25;14.50;;;;;13.12;59.40;101858.97;4943309;28;45248;-65
2022/11/02 07:01:33;;;;;;;;;7.75;5.75;;;;;13.07;59.25;101853.72;4942035;28;45364;-65
2022/11/02 07:03:59;;;;;;;;;7.25;5.75;;;;;13.12;59.25;101861.63;4943445;28;45240;-65
2022/11/02 07:06:25;;;;;;;;;8.75;4.75;;;;;13.12;59.19;101861.63;4942124;28;45383;-65
2022/11/02 07:08:50;;;;;;;;;7.75;5.00;;;;;13.10;59.34;101858.09;4943304;28;45318;-65
2022/11/02 07:11:15;;;;;;;;;11.25;6.00;;;;;13.10;59.55;101863.38;4942937;28;45443;-65
2022/11/02 07:13:41;;;;;;;;;7.75;4.50;;;;;13.08;59.39;101865.16;4942961;28;45551;-65
2022/11/02 07:16:06;;;;;;;;;9.00;6.00;;;;;13.06;59.42;101864.31;4942725;28;46394;-65
2022/11/02 07:18:32;;;;;;;;;9.50;6.75;;;;;13.05;59.42;101871.31;4943006;28;45307;-65
2022/11/02 07:21:01;;;;;;;;;6.75;4.00;;;;;13.06;59.68;101878.34;4942736;28;45247;-64
2022/11/02 07:23:27;;;;;;;;;4.25;4.25;;;;;13.05;59.57;101875.75;4942923;28;45431;-65
2022/11/02 07:25:52;;;;;;;;;18.75;14.50;;;;;13.04;59.79;101885.41;4942519;28;46719;-64
2022/11/02 07:28:17;;;;;;;;;10.25;8.00;;;;;13.03;59.63;101877.50;4942881;28;45247;-64
2022/11/02 07:30:43;;;;;;;;;8.75;8.75;;;;;13.02;59.71;101876.63;4942805;28;45184;-64
2022/11/02 07:33:09;;;;;;;;;4.25;2.50;;;;;12.99;59.69;101869.63;4942931;28;45147;-63
2022/11/02 07:35:34;;;;;;;;;9.75;5.75;;;;;13.06;59.60;101882.78;4940277;28;46081;-63
2022/11/02 07:38:04;;;;;;;;;7.50;6.00;;;;;13.04;59.93;101885.41;4942820;28;45449;-64
2022/11/02 07:40:32;;;;;;;;;9.25;6.00;;;;;12.99;59.70;101880.16;4942504;28;45183;-64
2022/11/02 07:42:58;;;;;;;;;7.50;4.75;;;;;13.01;59.97;101878.38;4942577;28;45369;-65
2022/11/02 07:45:23;;;;;;;;;7.00;6.00;;;;;13.01;59.72;101881.00;4942409;28;45304;-65
2022/11/02 07:47:49;;;;;;;;;9.25;6.75;;;;;12.99;60.13;101890.72;4942433;28;45199;-63
2022/11/02 07:50:19;;;;;;;;;10.00;9.00;;;;;12.99;60.16;101893.38;4942471;28;45310;-64
2022/11/02 07:52:53;;;;;;;;;10.50;8.75;;;;;12.96;60.16;101890.72;4942434;28;45399;-64
2022/11/02 07:55:21;;;;;;;;;13.25;9.50;;;;;12.95;60.11;101883.69;4942141;28;47992;-64
2022/11/02 07:57:56;;;;;;;;;11.50;6.75;;;;;12.98;60.42;101895.97;4942279;28;45298;-64
2022/11/02 08:00:23;;;;;;;;;12.75;9.50;;;;;13.01;60.21;101895.97;4942244;28;45432;-64
2022/11/02 08:02:52;;;;;;;;;11.75;7.25;;;;;13.03;60.36;101898.59;4941151;28;45377;-64
2022/11/02 08:05:17;;;;;;;;;9.75;5.25;;;;;13.01;59.75;101894.22;4942061;28;46000;-64
2022/11/02 08:07:42;;;;;;;;;8.00;6.25;;;;;12.99;60.52;101893.38;4942111;28;45306;-63
2022/11/02 08:10:08;;;;;;;;;7.75;5.75;;;;;12.99;60.30;101892.47;4942335;28;45374;-63
2022/11/02 08:12:33;;;;;;;;;5.00;4.75;;;;;12.97;60.70;101891.63;4942195;28;45330;-64
2022/11/02 08:14:59;;;;;;;;;9.00;6.75;;;;;13.01;60.35;101896.84;4941653;28;53291;-64
2022/11/02 08:17:24;;;;;;;;;9.75;7.25;;;;;13.05;60.62;101891.56;4941998;28;45385;-64
2022/11/02 08:19:49;;;;;;;;;8.50;6.00;;;;;13.06;60.45;101898.59;4942176;28;45310;-64
2022/11/02 08:22:15;;;;;;;;;12.25;7.25;;;;;13.04;60.65;101898.59;4942047;28;45222;-64
2022/11/02 08:24:40;;;;;;;;;5.50;5.00;;;;;13.06;60.79;101910.03;4941837;28;45284;-64
2022/11/02 08:27:06;;;;;;;;;7.50;5.75;;;;;13.10;60.65;101910.88;4941850;28;45181;-64
2022/11/02 08:29:31;;;;;;;;;6.75;6.00;;;;;13.08;60.55;101913.53;4941997;28;45405;-63
2022/11/02 08:31:56;;;;;;;;;7.50;4.75;;;;;13.12;60.66;101906.50;4942126;28;45309;-63
2022/11/02 08:34:22;;;;;;;;;17.25;13.00;;;;;13.16;60.72;101900.28;4941713;28;45270;-64
2022/11/02 08:36:47;;;;;;;;;9.50;7.25;;;;;13.17;60.54;101902.06;4941431;28;45226;-63
2022/11/02 08:39:12;;;;;;;;;8.50;6.25;;;;;13.21;60.92;101903.78;4941750;28;45333;-63
2022/11/02 08:41:37;;;;;;;;;15.00;14.00;;;;;13.24;60.65;101895.81;4941701;28;45343;-63
2022/11/02 08:44:03;;;;;;;;;8.75;6.50;;;;;13.31;60.66;101899.31;4941341;28;51483;-63
2022/11/02 08:46:28;;;;;;;;;13.25;8.25;;;;;13.28;60.88;101897.56;4941673;28;45273;-65
2022/11/02 08:48:54;;;;;;;;;9.00;7.00;;;;;13.36;60.44;101900.16;4940458;28;45354;-63
2022/11/02 08:51:19;;;;;;;;;11.00;7.00;;;;;13.42;60.67;101907.16;4941396;28;45354;-64
2022/11/02 08:53:45;;;;;;;;;10.50;7.25;;;;;13.47;60.84;101898.34;4941524;28;46027;-65
2022/11/02 08:56:10;;;;;;;;;10.50;7.50;;;;;13.49;60.99;101909.75;4940248;28;45334;-65
2022/11/02 08:58:35;;;;;;;;;10.75;7.25;;;;;13.58;60.50;101908.81;4940290;28;45429;-64
2022/11/02 09:01:01;;;;;;;;;7.00;5.00;;;;;13.59;60.72;101904.41;4941684;28;45713;-64
2022/11/02 09:03:27;;;;;;;;;11.50;9.00;;;;;13.66;60.60;101906.13;4941212;28;45358;-64
2022/11/02 09:05:57;;;;;;;;;10.50;7.00;;;;;13.73;61.08;101901.66;4941305;28;45429;-64
2022/11/02 09:08:23;;;;;;;;;9.50;6.00;;;;;13.80;60.85;101906.00;4941469;28;45212;-64
2022/11/02 09:10:52;;;;;;;;;7.75;5.00;;;;;13.85;60.38;101898.91;4939855;28;45964;-63
2022/11/02 09:13:23;;;;;;;;;9.50;6.50;;;;;13.89;60.89;101903.25;4941211;28;46055;-65
2022/11/02 09:15:51;;;;;;;;;9.00;6.00;;;;;13.94;60.78;101909.38;4941222;28;45266;-65
2022/11/02 09:18:17;;;;;;;;;9.00;7.00;;;;;13.98;60.51;101894.38;4941129;28;45324;-64
2022/11/02 09:20:42;;;;;;;;;17.00;8.00;;;;;14.07;60.74;101903.97;4941022;28;45306;-65
2022/11/02 09:23:08;;;;;;;;;9.75;7.75;;;;;14.14;60.34;101903.03;4941059;28;45863;-63
2022/11/02 09:25:33;;;;;;;;;9.50;6.50;;;;;14.19;60.31;101895.91;4941226;28;45331;-64
2022/11/02 09:27:58;;;;;;;;;8.75;7.75;;;;;14.26;60.57;101884.38;4941283;28;45391;-65
2022/11/02 09:30:25;;;;;;;;;8.25;7.50;;;;;14.33;60.46;101889.59;4940027;28;45359;-65
2022/11/02 09:32:58;;;;;;;;;13.25;10.75;;;;;14.40;60.64;101880.69;4940932;28;46192;-63
2022/11/02 09:35:25;;;;;;;;;7.00;5.00;;;;;14.57;60.26;101891.06;4940923;28;45464;-63
2022/11/02 09:37:51;;;;;;;;;10.25;8.75;;;;;14.67;60.45;101883.94;4941063;28;45213;-63
2022/11/02 09:40:25;;;;;;;;;14.00;12.25;;;;;14.74;60.21;101890.88;4939698;28;45270;-65
2022/11/02 09:42:53;;;;;;;;;12.75;10.75;;;;;14.78;60.04;101893.47;4940990;28;46098;-63
2022/11/02 09:45:20;;;;;;;;;20.25;13.75;;;;;14.88;59.89;101881.00;4940863;28;45441;-65
2022/11/02 09:47:53;;;;;;;;;15.75;11.75;;;;;14.99;59.74;101885.25;4939611;28;45489;-63
2022/11/02 09:50:24;;;;;;;;;12.00;10.50;;;;;15.09;59.92;101884.22;4940709;28;45479;-64
2022/11/02 09:52:56;;;;;;;;;24.25;19.25;;;;;15.15;59.97;101872.66;4940668;28;45414;-63
2022/11/02 09:55:31;;;;;;;;;13.75;11.25;;;;;15.20;59.67;101876.13;4940548;28;45372;-64
2022/11/02 09:58:14;;;;;;;;;11.00;7.75;;;;;15.28;59.66;101872.44;4939569;28;45280;-64
2022/11/02 10:00:42;;;;;;;;;16.50;8.50;;;;;15.36;59.56;101868.81;4932521;28;45320;-64
2022/11/02 10:03:17;;;;;;;;;8.75;5.50;;;;;15.43;59.71;101878.38;4943866;28;45565;-64
2022/11/02 10:05:54;;;;;;;;;13.00;8.25;;;;;15.49;59.54;101872.97;4943802;28;45361;-64
2022/11/02 10:08:24;;;;;;;;;9.50;6.75;;;;;15.54;59.55;101879.06;4942767;28;45468;-64
2022/11/02 10:10:57;;;;;;;;;11.25;7.75;;;;;15.71;59.47;101876.16;4943921;28;45376;-65
2022/11/02 10:13:31;;;;;;;;;10.00;5.25;;;;;15.76;59.24;101876.09;4942441;28;48072;-64
2022/11/02 10:16:23;;;;;;;;;10.25;6.75;;;;;15.81;59.17;101881.28;4942458;28;46004;-64
2022/11/02 10:18:52;;;;;;;;;8.25;5.50;;;;;15.88;59.29;101875.88;4941396;28;45332;-64
2022/11/02 10:21:29;;;;;;;;;11.00;7.00;;;;;16.02;59.13;101878.25;4943445;28;45237;-64
2022/11/02 10:24:01;;;;;;;;;8.00;4.75;;;;;16.08;58.65;101882.59;4943721;28;46093;-64
2022/11/02 10:26:34;;;;;;;;;11.50;7.50;;;;;16.12;58.86;101889.56;4943532;28;45313;-64
2022/11/02 10:29:17;;;;;;;;;10.00;7.50;;;;;16.22;58.55;101888.47;4943835;28;45258;-63
2022/11/02 10:31:42;;;;;;;;;9.50;6.50;;;;;16.27;58.51;101882.22;4943510;28;45343;-63
2022/11/02 10:34:22;;;;;;;;;8.00;5.50;;;;;16.38;58.36;101875.78;4943601;28;45434;-64
2022/11/02 10:36:59;;;;;;;;;8.00;5.25;;;;;16.45;58.33;101876.53;4943258;28;45325;-64
2022/11/02 10:39:56;;;;;;;;;5.25;4.75;;;;;16.50;58.02;101879.09;4943516;28;45393;-64
2022/11/02 10:42:27;;;;;;;;;9.25;5.75;;;;;16.56;58.27;101885.16;4943326;28;45307;-64
2022/11/02 10:44:58;;;;;;;;;4.00;3.00;;;;;16.62;57.80;101880.63;4943388;28;45248;-64
2022/11/02 10:47:29;;;;;;;;;8.25;5.75;;;;;16.65;57.95;101876.09;4942984;28;45278;-64
2022/11/02 10:50:22;;;;;;;;;5.75;3.00;;;;;16.68;57.75;101872.53;4943591;28;45247;-64
2022/11/02 10:52:48;;;;;;;;;4.25;3.25;;;;;16.69;57.78;101876.91;4943452;28;45378;-64
2022/11/02 10:55:25;;;;;;;;;6.75;6.00;;;;;16.74;57.85;101875.03;4943112;28;46229;-64
2022/11/02 10:57:54;;;;;;;;;9.25;5.00;;;;;16.82;57.49;101869.59;4943180;28;45323;-64
2022/11/02 11:00:31;;;;;;;;;10.25;5.50;;;;;16.93;57.33;101872.00;4943298;28;45377;-65
2022/11/02 11:03:11;;;;;;;;;6.50;4.00;;;;;16.93;57.42;101866.69;4943124;28;45401;-65
2022/11/02 11:06:02;;;;;;;;;4.25;3.50;;;;;16.99;57.32;101864.78;4942901;28;45328;-65
2022/11/02 11:08:28;;;;;;;;;4.00;4.00;;;;;17.06;57.10;101862.84;4943019;28;45294;-65
2022/11/02 11:10:54;;;;;;;;;4.00;4.00;;;;;17.03;57.35;101869.13;4941970;28;45222;-65
2022/11/02 11:13:22;;;;;;;;;4.50;3.00;;;;;17.08;57.14;101861.06;4942905;28;45484;-65
2022/11/02 11:15:51;;;;;;;;;7.75;5.00;;;;;17.14;57.43;101871.50;4941714;28;45338;-65
2022/11/02 11:18:20;;;;;;;;;4.25;2.00;;;;;17.20;56.99;101859.88;4942932;28;45285;-66
2022/11/02 11:20:46;;;;;;;;;4.75;4.75;;;;;17.29;56.73;101861.44;4942512;28;45421;-66
2022/11/02 11:23:20;;;;;;;;;5.50;5.50;;;;;17.36;56.92;101852.41;4941851;28;45341;-65
2022/11/02 11:26:10;;;;;;;;;5.50;4.25;;;;;17.42;56.44;101838.97;4942535;28;46236;-65
2022/11/02 11:28:39;;;;;;;;;8.00;4.75;;;;;17.45;56.63;101838.88;4942694;28;45241;-65
2022/11/02 11:31:16;;;;;;;;;5.75;3.50;;;;;17.52;56.52;101837.81;4942713;28;45504;-65
2022/11/02 11:33:46;;;;;;;;;3.50;3.50;;;;;17.53;56.38;101847.53;4942812;28;45278;-65
2022/11/02 11:36:22;;;;;;;;;8.75;5.00;;;;;17.59;56.44;101843.84;4942247;28;46116;-65
2022/11/02 11:38:49;;;;;;;;;5.75;5.75;;;;;17.69;56.34;101836.50;4942639;28;45236;-65
2022/11/02 11:41:15;;;;;;;;;5.75;3.25;;;;;17.74;56.60;101839.91;4942668;28;45160;-65
2022/11/02 11:43:41;;;;;;;;;10.50;5.00;;;;;17.82;56.25;101845.00;4942611;28;45355;-65
2022/11/02 11:46:07;;;;;;;;;3.00;3.00;;;;;17.91;56.13;101850.09;4941341;28;45975;-65
2022/11/02 11:48:54;;;;;;;;;9.00;6.00;;;;;17.85;56.08;101842.28;4941769;28;45313;-64
2022/11/02 11:51:27;;;;;;;;;4.00;3.75;;;;;17.90;56.13;101828.84;4942258;28;45248;-65